sensor_id;sensor_type;location;lat;lon;timestamp;P1;durP1;ratioP1;P2;durP2;ratioP2
13388;SDS011;6764;53.250;10.410;2023-05-21T00:00:51;8.83;;;3.30;;
13388;SDS011;6764;53.250;10.410;2023-05-21T00:03:17;5.13;;;3.47;;
13388;SDS011;6764;53.250;10.410;2023-05-21T00:05:43;6.07;;;3.13;;
13388;SDS011;6764;53.250;10.410;2023-05-21T00:08:13;3.93;;;2.90;;
13388;SDS011;6764;53.250;10.410;2023-05-21T00:10:39;4.33;;;3.07;;
13388;SDS011;6764;53.250;10.410;2023-05-21T00:13:05;4.90;;;3.83;;
13388;SDS011;6764;53.250;10.410;2023-05-21T00:15:30;4.33;;;3.10;;
13388;SDS011;6764;53.250;10.410;2023-05-21T00:17:56;4.83;;;3.13;;
13388;SDS011;6764;53.250;10.410;2023-05-21T00:20:21;6.10;;;3.58;;
13388;SDS011;6764;53.250;10.410;2023-05-21T00:22:47;4.10;;;3.27;;
13388;SDS011;6764;53.250;10.410;2023-05-21T00:25:13;4.70;;;2.83;;
13388;SDS011;6764;53.250;10.410;2023-05-21T00:27:38;4.27;;;3.20;;
13388;SDS011;6764;53.250;10.410;2023-05-21T00:30:04;9.97;;;3.63;;
13388;SDS011;6764;53.250;10.410;2023-05-21T00:32:30;7.30;;;3.30;;
13388;SDS011;6764;53.250;10.410;2023-05-21T00:34:56;4.20;;;3.50;;
13388;SDS011;6764;53.250;10.410;2023-05-21T00:37:22;3.63;;;3.30;;
13388;SDS011;6764;53.250;10.410;2023-05-21T00:39:48;5.13;;;3.47;;
13388;SDS011;6764;53.250;10.410;2023-05-21T00:42:14;4.00;;;3.20;;
13388;SDS011;6764;53.250;10.410;2023-05-21T00:44:42;4.70;;;3.27;;
13388;SDS011;6764;53.250;10.410;2023-05-21T00:47:09;6.13;;;4.00;;
13388;SDS011;6764;53.250;10.410;2023-05-21T00:49:36;4.20;;;3.20;;
13388;SDS011;6764;53.250;10.410;2023-05-21T00:52:02;5.07;;;3.30;;
13388;SDS011;6764;53.250;10.410;2023-05-21T00:54:28;4.97;;;3.17;;
13388;SDS011;6764;53.250;10.410;2023-05-21T00:56:54;7.60;;;3.67;;
13388;SDS011;6764;53.250;10.410;2023-05-21T00:59:20;4.47;;;2.73;;
13388;SDS011;6764;53.250;10.410;2023-05-21T01:01:46;7.03;;;3.53;;
13388;SDS011;6764;53.250;10.410;2023-05-21T01:04:17;7.00;;;3.00;;
13388;SDS011;6764;53.250;10.410;2023-05-21T01:06:44;5.10;;;3.27;;
13388;SDS011;6764;53.250;10.410;2023-05-21T01:09:10;5.63;;;3.17;;
13388;SDS011;6764;53.250;10.410;2023-05-21T01:11:37;8.57;;;3.03;;
13388;SDS011;6764;53.250;10.410;2023-05-21T01:14:11;5.60;;;3.27;;
13388;SDS011;6764;53.250;10.410;2023-05-21T01:16:39;5.93;;;3.30;;
13388;SDS011;6764;53.250;10.410;2023-05-21T01:19:07;5.47;;;3.13;;
13388;SDS011;6764;53.250;10.410;2023-05-21T01:21:36;5.40;;;2.90;;
13388;SDS011;6764;53.250;10.410;2023-05-21T01:24:05;3.90;;;3.27;;
13388;SDS011;6764;53.250;10.410;2023-05-21T01:26:32;4.93;;;3.50;;
13388;SDS011;6764;53.250;10.410;2023-05-21T01:29:02;5.93;;;3.13;;
13388;SDS011;6764;53.250;10.410;2023-05-21T01:31:31;5.77;;;3.23;;
13388;SDS011;6764;53.250;10.410;2023-05-21T01:34:01;8.43;;;3.60;;
13388;SDS011;6764;53.250;10.410;2023-05-21T01:36:33;4.17;;;2.90;;
13388;SDS011;6764;53.250;10.410;2023-05-21T01:39:06;5.13;;;3.00;;
13388;SDS011;6764;53.250;10.410;2023-05-21T01:41:39;5.47;;;3.50;;
13388;SDS011;6764;53.250;10.410;2023-05-21T01:44:07;5.17;;;3.53;;
13388;SDS011;6764;53.250;10.410;2023-05-21T01:46:34;3.77;;;3.37;;
13388;SDS011;6764;53.250;10.410;2023-05-21T01:49:03;4.53;;;3.60;;
13388;SDS011;6764;53.250;10.410;2023-05-21T01:51:31;4.80;;;3.17;;
13388;SDS011;6764;53.250;10.410;2023-05-21T01:53:58;8.60;;;3.33;;
13388;SDS011;6764;53.250;10.410;2023-05-21T01:56:23;4.40;;;3.00;;
13388;SDS011;6764;53.250;10.410;2023-05-21T01:58:49;3.43;;;3.00;;
13388;SDS011;6764;53.250;10.410;2023-05-21T02:01:16;5.93;;;3.43;;
13388;SDS011;6764;53.250;10.410;2023-05-21T02:03:41;4.17;;;3.33;;
13388;SDS011;6764;53.250;10.410;2023-05-21T02:06:07;3.60;;;2.80;;
13388;SDS011;6764;53.250;10.410;2023-05-21T02:08:33;5.07;;;2.93;;
13388;SDS011;6764;53.250;10.410;2023-05-21T02:10:58;4.83;;;3.57;;
13388;SDS011;6764;53.250;10.410;2023-05-21T02:13:24;4.83;;;2.80;;
13388;SDS011;6764;53.250;10.410;2023-05-21T02:15:50;6.63;;;3.00;;
13388;SDS011;6764;53.250;10.410;2023-05-21T02:18:18;5.20;;;3.17;;
13388;SDS011;6764;53.250;10.410;2023-05-21T02:20:45;4.20;;;3.23;;
13388;SDS011;6764;53.250;10.410;2023-05-21T02:23:11;6.90;;;3.47;;
13388;SDS011;6764;53.250;10.410;2023-05-21T02:25:36;5.20;;;3.00;;
13388;SDS011;6764;53.250;10.410;2023-05-21T02:28:02;7.63;;;3.67;;
13388;SDS011;6764;53.250;10.410;2023-05-21T02:30:28;7.93;;;3.67;;
13388;SDS011;6764;53.250;10.410;2023-05-21T02:32:54;5.53;;;3.27;;
13388;SDS011;6764;53.250;10.410;2023-05-21T02:35:19;5.93;;;3.47;;
13388;SDS011;6764;53.250;10.410;2023-05-21T02:37:45;4.60;;;3.43;;
13388;SDS011;6764;53.250;10.410;2023-05-21T02:40:11;5.40;;;3.13;;
13388;SDS011;6764;53.250;10.410;2023-05-21T02:42:37;5.63;;;3.50;;
13388;SDS011;6764;53.250;10.410;2023-05-21T02:45:10;7.30;;;3.60;;
13388;SDS011;6764;53.250;10.410;2023-05-21T02:47:36;6.53;;;3.27;;
13388;SDS011;6764;53.250;10.410;2023-05-21T02:50:05;6.37;;;3.20;;
13388;SDS011;6764;53.250;10.410;2023-05-21T02:52:32;5.33;;;3.23;;
13388;SDS011;6764;53.250;10.410;2023-05-21T02:54:57;5.57;;;3.10;;
13388;SDS011;6764;53.250;10.410;2023-05-21T02:57:23;4.80;;;3.20;;
13388;SDS011;6764;53.250;10.410;2023-05-21T02:59:48;6.00;;;3.67;;
13388;SDS011;6764;53.250;10.410;2023-05-21T03:02:14;4.87;;;3.50;;
13388;SDS011;6764;53.250;10.410;2023-05-21T03:04:40;5.73;;;3.03;;
13388;SDS011;6764;53.250;10.410;2023-05-21T03:07:10;4.83;;;3.23;;
13388;SDS011;6764;53.250;10.410;2023-05-21T03:09:38;4.90;;;3.50;;
13388;SDS011;6764;53.250;10.410;2023-05-21T03:12:04;4.47;;;3.00;;
13388;SDS011;6764;53.250;10.410;2023-05-21T03:14:30;5.33;;;3.00;;
13388;SDS011;6764;53.250;10.410;2023-05-21T03:16:56;7.57;;;3.77;;
13388;SDS011;6764;53.250;10.410;2023-05-21T03:19:22;3.83;;;3.13;;
13388;SDS011;6764;53.250;10.410;2023-05-21T03:21:48;5.10;;;3.40;;
13388;SDS011;6764;53.250;10.410;2023-05-21T03:24:14;4.93;;;3.57;;
13388;SDS011;6764;53.250;10.410;2023-05-21T03:26:40;5.07;;;3.67;;
13388;SDS011;6764;53.250;10.410;2023-05-21T03:29:05;5.23;;;3.20;;
13388;SDS011;6764;53.250;10.410;2023-05-21T03:31:31;8.67;;;3.30;;
13388;SDS011;6764;53.250;10.410;2023-05-21T03:33:56;5.43;;;3.50;;
13388;SDS011;6764;53.250;10.410;2023-05-21T03:36:22;4.60;;;2.93;;
13388;SDS011;6764;53.250;10.410;2023-05-21T03:38:48;8.13;;;3.30;;
13388;SDS011;6764;53.250;10.410;2023-05-21T03:41:13;7.30;;;3.57;;
13388;SDS011;6764;53.250;10.410;2023-05-21T03:43:39;6.83;;;3.30;;
13388;SDS011;6764;53.250;10.410;2023-05-21T03:46:05;5.33;;;3.50;;
13388;SDS011;6764;53.250;10.410;2023-05-21T03:48:30;6.30;;;3.33;;
13388;SDS011;6764;53.250;10.410;2023-05-21T03:50:56;4.60;;;3.17;;
13388;SDS011;6764;53.250;10.410;2023-05-21T03:53:21;4.27;;;3.37;;
13388;SDS011;6764;53.250;10.410;2023-05-21T03:55:47;5.53;;;3.30;;
13388;SDS011;6764;53.250;10.410;2023-05-21T03:58:22;7.90;;;3.40;;
13388;SDS011;6764;53.250;10.410;2023-05-21T04:00:47;4.90;;;3.70;;
13388;SDS011;6764;53.250;10.410;2023-05-21T04:03:13;4.50;;;3.47;;
13388;SDS011;6764;53.250;10.410;2023-05-21T04:05:40;6.53;;;3.47;;
13388;SDS011;6764;53.250;10.410;2023-05-21T04:08:06;4.90;;;3.00;;
13388;SDS011;6764;53.250;10.410;2023-05-21T04:10:32;4.53;;;3.07;;
13388;SDS011;6764;53.250;10.410;2023-05-21T04:12:58;7.67;;;3.67;;
13388;SDS011;6764;53.250;10.410;2023-05-21T04:15:24;4.83;;;3.80;;
13388;SDS011;6764;53.250;10.410;2023-05-21T04:17:51;5.37;;;3.30;;
13388;SDS011;6764;53.250;10.410;2023-05-21T04:20:17;5.70;;;4.00;;
13388;SDS011;6764;53.250;10.410;2023-05-21T04:22:43;6.40;;;3.50;;
13388;SDS011;6764;53.250;10.410;2023-05-21T04:25:08;4.80;;;3.10;;
13388;SDS011;6764;53.250;10.410;2023-05-21T04:27:35;8.13;;;3.77;;
13388;SDS011;6764;53.250;10.410;2023-05-21T04:30:01;6.23;;;3.73;;
13388;SDS011;6764;53.250;10.410;2023-05-21T04:32:28;5.37;;;3.73;;
13388;SDS011;6764;53.250;10.410;2023-05-21T04:34:58;6.13;;;3.70;;
13388;SDS011;6764;53.250;10.410;2023-05-21T04:37:25;4.23;;;3.40;;
13388;SDS011;6764;53.250;10.410;2023-05-21T04:39:51;6.57;;;3.50;;
13388;SDS011;6764;53.250;10.410;2023-05-21T04:42:21;4.67;;;3.67;;
13388;SDS011;6764;53.250;10.410;2023-05-21T04:44:50;7.27;;;3.40;;
13388;SDS011;6764;53.250;10.410;2023-05-21T04:47:16;6.27;;;4.10;;
13388;SDS011;6764;53.250;10.410;2023-05-21T04:49:45;6.60;;;3.60;;
13388;SDS011;6764;53.250;10.410;2023-05-21T04:52:14;5.43;;;3.70;;
13388;SDS011;6764;53.250;10.410;2023-05-21T04:54:40;7.30;;;3.10;;
13388;SDS011;6764;53.250;10.410;2023-05-21T04:57:06;6.47;;;3.83;;
13388;SDS011;6764;53.250;10.410;2023-05-21T04:59:32;8.00;;;3.97;;
13388;SDS011;6764;53.250;10.410;2023-05-21T05:01:58;5.77;;;3.47;;
13388;SDS011;6764;53.250;10.410;2023-05-21T05:04:24;5.63;;;3.50;;
13388;SDS011;6764;53.250;10.410;2023-05-21T05:06:49;6.03;;;3.70;;
13388;SDS011;6764;53.250;10.410;2023-05-21T05:09:16;4.57;;;3.13;;
13388;SDS011;6764;53.250;10.410;2023-05-21T05:11:42;5.20;;;3.90;;
13388;SDS011;6764;53.250;10.410;2023-05-21T05:14:08;7.43;;;3.90;;
13388;SDS011;6764;53.250;10.410;2023-05-21T05:16:33;6.50;;;4.00;;
13388;SDS011;6764;53.250;10.410;2023-05-21T05:19:00;7.13;;;3.80;;
13388;SDS011;6764;53.250;10.410;2023-05-21T05:21:26;5.83;;;3.50;;
13388;SDS011;6764;53.250;10.410;2023-05-21T05:23:51;5.50;;;3.30;;
13388;SDS011;6764;53.250;10.410;2023-05-21T05:26:17;4.73;;;3.43;;
13388;SDS011;6764;53.250;10.410;2023-05-21T05:28:42;8.83;;;4.00;;
13388;SDS011;6764;53.250;10.410;2023-05-21T05:31:09;6.53;;;3.93;;
13388;SDS011;6764;53.250;10.410;2023-05-21T05:33:35;5.27;;;4.03;;
13388;SDS011;6764;53.250;10.410;2023-05-21T05:36:01;7.20;;;4.27;;
13388;SDS011;6764;53.250;10.410;2023-05-21T05:38:27;3.97;;;3.57;;
13388;SDS011;6764;53.250;10.410;2023-05-21T05:40:52;6.03;;;3.83;;
13388;SDS011;6764;53.250;10.410;2023-05-21T05:43:18;5.70;;;4.30;;
13388;SDS011;6764;53.250;10.410;2023-05-21T05:45:43;8.10;;;3.97;;
13388;SDS011;6764;53.250;10.410;2023-05-21T05:48:09;6.70;;;4.20;;
13388;SDS011;6764;53.250;10.410;2023-05-21T05:50:35;4.93;;;4.30;;
13388;SDS011;6764;53.250;10.410;2023-05-21T05:53:03;9.17;;;4.80;;
13388;SDS011;6764;53.250;10.410;2023-05-21T05:55:29;8.43;;;4.60;;
13388;SDS011;6764;53.250;10.410;2023-05-21T05:57:55;6.03;;;4.47;;
13388;SDS011;6764;53.250;10.410;2023-05-21T06:00:20;10.98;;;5.25;;
13388;SDS011;6764;53.250;10.410;2023-05-21T06:02:46;9.32;;;4.43;;
13388;SDS011;6764;53.250;10.410;2023-05-21T06:05:12;5.53;;;4.10;;
13388;SDS011;6764;53.250;10.410;2023-05-21T06:07:38;6.37;;;4.50;;
13388;SDS011;6764;53.250;10.410;2023-05-21T06:10:05;9.00;;;4.10;;
13388;SDS011;6764;53.250;10.410;2023-05-21T06:12:31;7.15;;;4.60;;
13388;SDS011;6764;53.250;10.410;2023-05-21T06:14:57;6.82;;;4.78;;
13388;SDS011;6764;53.250;10.410;2023-05-21T06:17:22;6.03;;;4.40;;
13388;SDS011;6764;53.250;10.410;2023-05-21T06:19:48;6.32;;;4.40;;
13388;SDS011;6764;53.250;10.410;2023-05-21T06:22:13;6.72;;;4.70;;
13388;SDS011;6764;53.250;10.410;2023-05-21T06:24:39;8.10;;;4.60;;
13388;SDS011;6764;53.250;10.410;2023-05-21T06:27:05;8.65;;;5.28;;
13388;SDS011;6764;53.250;10.410;2023-05-21T06:29:30;7.38;;;5.20;;
13388;SDS011;6764;53.250;10.410;2023-05-21T06:31:56;6.70;;;4.65;;
13388;SDS011;6764;53.250;10.410;2023-05-21T06:34:21;7.43;;;4.90;;
13388;SDS011;6764;53.250;10.410;2023-05-21T06:36:47;7.85;;;4.60;;
13388;SDS011;6764;53.250;10.410;2023-05-21T06:39:13;7.63;;;4.70;;
13388;SDS011;6764;53.250;10.410;2023-05-21T06:41:38;4.68;;;4.13;;
13388;SDS011;6764;53.250;10.410;2023-05-21T06:44:04;6.10;;;4.88;;
13388;SDS011;6764;53.250;10.410;2023-05-21T06:46:30;7.07;;;4.85;;
13388;SDS011;6764;53.250;10.410;2023-05-21T06:48:55;8.35;;;5.07;;
13388;SDS011;6764;53.250;10.410;2023-05-21T06:51:21;6.53;;;4.80;;
13388;SDS011;6764;53.250;10.410;2023-05-21T06:53:47;41.58;;;9.68;;
13388;SDS011;6764;53.250;10.410;2023-05-21T06:56:12;6.75;;;5.20;;
13388;SDS011;6764;53.250;10.410;2023-05-21T06:58:38;7.07;;;5.00;;
13388;SDS011;6764;53.250;10.410;2023-05-21T07:01:04;8.57;;;5.20;;
13388;SDS011;6764;53.250;10.410;2023-05-21T07:03:29;9.73;;;4.90;;
13388;SDS011;6764;53.250;10.410;2023-05-21T07:05:56;8.35;;;5.32;;
13388;SDS011;6764;53.250;10.410;2023-05-21T07:08:22;6.68;;;5.35;;
13388;SDS011;6764;53.250;10.410;2023-05-21T07:10:47;6.65;;;5.68;;
13388;SDS011;6764;53.250;10.410;2023-05-21T07:13:14;6.22;;;5.32;;
13388;SDS011;6764;53.250;10.410;2023-05-21T07:15:40;7.88;;;5.72;;
13388;SDS011;6764;53.250;10.410;2023-05-21T07:18:05;8.52;;;6.07;;
13388;SDS011;6764;53.250;10.410;2023-05-21T07:20:31;8.32;;;5.72;;
13388;SDS011;6764;53.250;10.410;2023-05-21T07:22:57;7.53;;;5.57;;
13388;SDS011;6764;53.250;10.410;2023-05-21T07:25:22;7.10;;;5.70;;
13388;SDS011;6764;53.250;10.410;2023-05-21T07:27:48;9.00;;;5.88;;
13388;SDS011;6764;53.250;10.410;2023-05-21T07:30:14;7.30;;;6.40;;
13388;SDS011;6764;53.250;10.410;2023-05-21T07:32:39;9.60;;;6.20;;
13388;SDS011;6764;53.250;10.410;2023-05-21T07:35:05;8.65;;;6.30;;
13388;SDS011;6764;53.250;10.410;2023-05-21T07:37:31;8.35;;;5.72;;
13388;SDS011;6764;53.250;10.410;2023-05-21T07:39:57;6.57;;;5.97;;
13388;SDS011;6764;53.250;10.410;2023-05-21T07:42:22;7.80;;;6.47;;
13388;SDS011;6764;53.250;10.410;2023-05-21T07:44:48;7.40;;;6.68;;
13388;SDS011;6764;53.250;10.410;2023-05-21T07:47:14;7.72;;;6.82;;
13388;SDS011;6764;53.250;10.410;2023-05-21T07:49:40;8.50;;;5.97;;
13388;SDS011;6764;53.250;10.410;2023-05-21T07:52:08;8.45;;;6.78;;
13388;SDS011;6764;53.250;10.410;2023-05-21T07:54:34;10.88;;;7.72;;
13388;SDS011;6764;53.250;10.410;2023-05-21T07:56:59;7.57;;;6.88;;
13388;SDS011;6764;53.250;10.410;2023-05-21T07:59:28;9.25;;;7.07;;
13388;SDS011;6764;53.250;10.410;2023-05-21T08:01:53;9.18;;;7.70;;
13388;SDS011;6764;53.250;10.410;2023-05-21T08:04:19;9.18;;;7.85;;
13388;SDS011;6764;53.250;10.410;2023-05-21T08:06:45;9.07;;;8.00;;
13388;SDS011;6764;53.250;10.410;2023-05-21T08:09:10;9.82;;;8.32;;
13388;SDS011;6764;53.250;10.410;2023-05-21T08:11:37;9.52;;;7.13;;
13388;SDS011;6764;53.250;10.410;2023-05-21T08:14:02;9.13;;;7.25;;
13388;SDS011;6764;53.250;10.410;2023-05-21T08:16:28;9.82;;;8.10;;
13388;SDS011;6764;53.250;10.410;2023-05-21T08:18:54;9.45;;;8.50;;
13388;SDS011;6764;53.250;10.410;2023-05-21T08:21:19;12.55;;;7.95;;
13388;SDS011;6764;53.250;10.410;2023-05-21T08:23:46;9.27;;;7.93;;
13388;SDS011;6764;53.250;10.410;2023-05-21T08:26:12;9.63;;;8.63;;
13388;SDS011;6764;53.250;10.410;2023-05-21T08:28:40;10.50;;;8.65;;
13388;SDS011;6764;53.250;10.410;2023-05-21T08:31:06;9.32;;;8.43;;
13388;SDS011;6764;53.250;10.410;2023-05-21T08:33:33;12.32;;;8.35;;
13388;SDS011;6764;53.250;10.410;2023-05-21T08:36:01;13.48;;;7.95;;
13388;SDS011;6764;53.250;10.410;2023-05-21T08:38:27;11.23;;;7.78;;
13388;SDS011;6764;53.250;10.410;2023-05-21T08:40:53;10.57;;;8.63;;
13388;SDS011;6764;53.250;10.410;2023-05-21T08:43:19;11.32;;;8.48;;
13388;SDS011;6764;53.250;10.410;2023-05-21T08:45:46;9.38;;;8.32;;
13388;SDS011;6764;53.250;10.410;2023-05-21T08:48:18;11.38;;;7.72;;
13388;SDS011;6764;53.250;10.410;2023-05-21T08:50:47;10.80;;;8.13;;
13388;SDS011;6764;53.250;10.410;2023-05-21T08:53:17;12.77;;;7.63;;
13388;SDS011;6764;53.250;10.410;2023-05-21T08:55:43;12.38;;;8.65;;
13388;SDS011;6764;53.250;10.410;2023-05-21T08:58:09;10.55;;;8.50;;
13388;SDS011;6764;53.250;10.410;2023-05-21T09:00:34;9.55;;;8.18;;
13388;SDS011;6764;53.250;10.410;2023-05-21T09:03:01;12.80;;;8.93;;
13388;SDS011;6764;53.250;10.410;2023-05-21T09:05:32;9.50;;;8.68;;
13388;SDS011;6764;53.250;10.410;2023-05-21T09:08:00;8.82;;;7.93;;
13388;SDS011;6764;53.250;10.410;2023-05-21T09:10:38;8.55;;;7.78;;
13388;SDS011;6764;53.250;10.410;2023-05-21T09:13:10;9.20;;;8.23;;
13388;SDS011;6764;53.250;10.410;2023-05-21T09:15:36;13.80;;;9.27;;
13388;SDS011;6764;53.250;10.410;2023-05-21T09:18:01;10.50;;;8.55;;
13388;SDS011;6764;53.250;10.410;2023-05-21T09:20:27;9.35;;;8.45;;
13388;SDS011;6764;53.250;10.410;2023-05-21T09:22:56;11.65;;;9.25;;
13388;SDS011;6764;53.250;10.410;2023-05-21T09:25:26;9.73;;;8.82;;
13388;SDS011;6764;53.250;10.410;2023-05-21T09:27:54;10.80;;;8.98;;
13388;SDS011;6764;53.250;10.410;2023-05-21T09:30:20;9.75;;;8.55;;
13388;SDS011;6764;53.250;10.410;2023-05-21T09:32:51;12.90;;;9.10;;
13388;SDS011;6764;53.250;10.410;2023-05-21T09:35:27;11.63;;;8.63;;
13388;SDS011;6764;53.250;10.410;2023-05-21T09:37:53;9.32;;;8.38;;
13388;SDS011;6764;53.250;10.410;2023-05-21T09:40:22;9.13;;;8.32;;
13388;SDS011;6764;53.250;10.410;2023-05-21T09:42:48;9.15;;;8.32;;
13388;SDS011;6764;53.250;10.410;2023-05-21T09:45:19;10.05;;;8.10;;
13388;SDS011;6764;53.250;10.410;2023-05-21T09:47:46;9.55;;;8.55;;
13388;SDS011;6764;53.250;10.410;2023-05-21T09:50:15;11.80;;;9.55;;
13388;SDS011;6764;53.250;10.410;2023-05-21T09:52:49;9.88;;;8.98;;
13388;SDS011;6764;53.250;10.410;2023-05-21T09:55:17;10.63;;;8.90;;
13388;SDS011;6764;53.250;10.410;2023-05-21T09:57:44;11.93;;;8.55;;
13388;SDS011;6764;53.250;10.410;2023-05-21T10:00:20;18.67;;;10.00;;
13388;SDS011;6764;53.250;10.410;2023-05-21T10:02:56;11.60;;;9.30;;
13388;SDS011;6764;53.250;10.410;2023-05-21T10:05:28;10.82;;;8.68;;
13388;SDS011;6764;53.250;10.410;2023-05-21T10:08:03;10.82;;;8.63;;
13388;SDS011;6764;53.250;10.410;2023-05-21T10:10:33;11.20;;;9.13;;
13388;SDS011;6764;53.250;10.410;2023-05-21T10:13:05;12.32;;;8.75;;
13388;SDS011;6764;53.250;10.410;2023-05-21T10:16:15;10.68;;;9.45;;
13388;SDS011;6764;53.250;10.410;2023-05-21T10:18:25;11.80;;;8.90;;
13388;SDS011;6764;53.250;10.410;2023-05-21T10:20:52;10.13;;;9.23;;
13388;SDS011;6764;53.250;10.410;2023-05-21T10:23:19;12.20;;;9.20;;
13388;SDS011;6764;53.250;10.410;2023-05-21T10:25:44;11.10;;;9.45;;
13388;SDS011;6764;53.250;10.410;2023-05-21T10:28:11;10.32;;;8.95;;
13388;SDS011;6764;53.250;10.410;2023-05-21T10:30:41;12.80;;;10.00;;
13388;SDS011;6764;53.250;10.410;2023-05-21T10:33:07;11.30;;;9.20;;
13388;SDS011;6764;53.250;10.410;2023-05-21T10:35:33;9.85;;;8.90;;
13388;SDS011;6764;53.250;10.410;2023-05-21T10:38:00;10.98;;;9.98;;
13388;SDS011;6764;53.250;10.410;2023-05-21T10:40:28;10.35;;;9.25;;
13388;SDS011;6764;53.250;10.410;2023-05-21T10:43:17;10.88;;;8.75;;
13388;SDS011;6764;53.250;10.410;2023-05-21T11:01:54;9.98;;;9.07;;
13388;SDS011;6764;53.250;10.410;2023-05-21T11:04:26;10.30;;;9.20;;
13388;SDS011;6764;53.250;10.410;2023-05-21T11:06:53;11.05;;;9.35;;
13388;SDS011;6764;53.250;10.410;2023-05-21T11:09:18;10.60;;;9.65;;
13388;SDS011;6764;53.250;10.410;2023-05-21T11:11:45;9.13;;;8.32;;
13388;SDS011;6764;53.250;10.410;2023-05-21T11:14:24;11.05;;;9.40;;
13388;SDS011;6764;53.250;10.410;2023-05-21T11:16:50;11.77;;;9.70;;
13388;SDS011;6764;53.250;10.410;2023-05-21T11:19:15;11.70;;;9.50;;
13388;SDS011;6764;53.250;10.410;2023-05-21T11:21:43;10.80;;;8.77;;
13388;SDS011;6764;53.250;10.410;2023-05-21T11:24:18;9.90;;;8.90;;
13388;SDS011;6764;53.250;10.410;2023-05-21T11:29:12;12.05;;;9.68;;
13388;SDS011;6764;53.250;10.410;2023-05-21T11:31:40;10.77;;;9.68;;
13388;SDS011;6764;53.250;10.410;2023-05-21T11:36:38;10.13;;;9.10;;
13388;SDS011;6764;53.250;10.410;2023-05-21T11:39:09;10.02;;;9.02;;
13388;SDS011;6764;53.250;10.410;2023-05-21T11:47:06;11.52;;;10.32;;
13388;SDS011;6764;53.250;10.410;2023-05-21T11:49:34;10.52;;;9.43;;
13388;SDS011;6764;53.250;10.410;2023-05-21T11:52:00;12.27;;;9.52;;
13388;SDS011;6764;53.250;10.410;2023-05-21T11:54:27;13.60;;;10.23;;
13388;SDS011;6764;53.250;10.410;2023-05-21T11:57:06;13.15;;;10.02;;
13388;SDS011;6764;53.250;10.410;2023-05-21T11:59:32;10.95;;;9.85;;
13388;SDS011;6764;53.250;10.410;2023-05-21T12:01:58;12.88;;;9.77;;
13388;SDS011;6764;53.250;10.410;2023-05-21T12:04:34;10.90;;;9.90;;
13388;SDS011;6764;53.250;10.410;2023-05-21T12:07:03;11.85;;;9.80;;
13388;SDS011;6764;53.250;10.410;2023-05-21T12:09:43;10.93;;;9.93;;
13388;SDS011;6764;53.250;10.410;2023-05-21T12:12:19;10.45;;;9.55;;
13388;SDS011;6764;53.250;10.410;2023-05-21T12:14:50;12.32;;;9.77;;
13388;SDS011;6764;53.250;10.410;2023-05-21T12:17:17;10.77;;;9.73;;
13388;SDS011;6764;53.250;10.410;2023-05-21T12:19:44;12.23;;;10.85;;
13388;SDS011;6764;53.250;10.410;2023-05-21T12:22:11;10.43;;;9.45;;
13388;SDS011;6764;53.250;10.410;2023-05-21T12:24:37;10.63;;;9.45;;
13388;SDS011;6764;53.250;10.410;2023-05-21T12:27:03;11.88;;;10.68;;
13388;SDS011;6764;53.250;10.410;2023-05-21T12:29:33;12.38;;;9.85;;
13388;SDS011;6764;53.250;10.410;2023-05-21T12:32:04;13.32;;;9.65;;
13388;SDS011;6764;53.250;10.410;2023-05-21T12:34:36;12.38;;;9.73;;
13388;SDS011;6764;53.250;10.410;2023-05-21T12:39:43;11.45;;;10.40;;
13388;SDS011;6764;53.250;10.410;2023-05-21T12:42:12;11.02;;;9.88;;
13388;SDS011;6764;53.250;10.410;2023-05-21T12:44:40;11.35;;;10.07;;
13388;SDS011;6764;53.250;10.410;2023-05-21T12:47:08;9.20;;;8.40;;
13388;SDS011;6764;53.250;10.410;2023-05-21T12:49:36;11.10;;;8.85;;
13388;SDS011;6764;53.250;10.410;2023-05-21T12:52:10;14.95;;;8.07;;
13388;SDS011;6764;53.250;10.410;2023-05-21T12:54:37;10.30;;;7.75;;
13388;SDS011;6764;53.250;10.410;2023-05-21T12:57:08;8.90;;;7.82;;
13388;SDS011;6764;53.250;10.410;2023-05-21T12:59:47;9.88;;;8.18;;
13388;SDS011;6764;53.250;10.410;2023-05-21T13:02:27;11.70;;;8.40;;
13388;SDS011;6764;53.250;10.410;2023-05-21T13:05:08;8.20;;;7.45;;
13388;SDS011;6764;53.250;10.410;2023-05-21T13:07:38;12.60;;;8.20;;
13388;SDS011;6764;53.250;10.410;2023-05-21T13:10:04;8.52;;;7.50;;
13388;SDS011;6764;53.250;10.410;2023-05-21T13:12:31;10.25;;;7.53;;
13388;SDS011;6764;53.250;10.410;2023-05-21T13:14:58;8.30;;;7.28;;
13388;SDS011;6764;53.250;10.410;2023-05-21T13:17:25;10.48;;;8.10;;
13388;SDS011;6764;53.250;10.410;2023-05-21T13:20:10;8.27;;;7.35;;
13388;SDS011;6764;53.250;10.410;2023-05-21T13:22:47;8.20;;;7.40;;
13388;SDS011;6764;53.250;10.410;2023-05-21T13:25:18;11.35;;;7.72;;
13388;SDS011;6764;53.250;10.410;2023-05-21T13:27:45;8.48;;;7.68;;
13388;SDS011;6764;53.250;10.410;2023-05-21T13:30:12;10.15;;;8.32;;
13388;SDS011;6764;53.250;10.410;2023-05-21T13:32:38;10.10;;;7.13;;
13388;SDS011;6764;53.250;10.410;2023-05-21T13:35:07;11.32;;;7.78;;
13388;SDS011;6764;53.250;10.410;2023-05-21T13:37:34;7.30;;;6.60;;
13388;SDS011;6764;53.250;10.410;2023-05-21T13:40:02;9.75;;;7.18;;
13388;SDS011;6764;53.250;10.410;2023-05-21T13:42:28;8.43;;;6.60;;
13388;SDS011;6764;53.250;10.410;2023-05-21T13:44:57;10.20;;;8.32;;
13388;SDS011;6764;53.250;10.410;2023-05-21T13:47:22;8.30;;;6.90;;
13388;SDS011;6764;53.250;10.410;2023-05-21T13:49:48;7.10;;;6.40;;
13388;SDS011;6764;53.250;10.410;2023-05-21T13:52:14;7.85;;;7.05;;
13388;SDS011;6764;53.250;10.410;2023-05-21T13:54:41;8.25;;;7.10;;
13388;SDS011;6764;53.250;10.410;2023-05-21T13:57:07;9.13;;;6.72;;
13388;SDS011;6764;53.250;10.410;2023-05-21T13:59:33;7.47;;;6.70;;
13388;SDS011;6764;53.250;10.410;2023-05-21T14:01:59;10.75;;;7.25;;
13388;SDS011;6764;53.250;10.410;2023-05-21T14:04:24;6.72;;;6.13;;
13388;SDS011;6764;53.250;10.410;2023-05-21T14:06:50;7.03;;;6.32;;
13388;SDS011;6764;53.250;10.410;2023-05-21T14:09:16;7.85;;;6.55;;
13388;SDS011;6764;53.250;10.410;2023-05-21T14:11:42;8.63;;;6.72;;
13388;SDS011;6764;53.250;10.410;2023-05-21T14:14:08;7.68;;;6.90;;
13388;SDS011;6764;53.250;10.410;2023-05-21T14:16:33;8.73;;;6.75;;
13388;SDS011;6764;53.250;10.410;2023-05-21T14:19:00;6.68;;;6.00;;
13388;SDS011;6764;53.250;10.410;2023-05-21T14:21:26;7.47;;;6.68;;
13388;SDS011;6764;53.250;10.410;2023-05-21T14:23:51;11.60;;;7.00;;
13388;SDS011;6764;53.250;10.410;2023-05-21T14:26:17;7.97;;;6.53;;
13388;SDS011;6764;53.250;10.410;2023-05-21T14:28:43;8.30;;;6.70;;
13388;SDS011;6764;53.250;10.410;2023-05-21T14:31:09;6.90;;;6.20;;
13388;SDS011;6764;53.250;10.410;2023-05-21T14:33:36;7.65;;;6.85;;
13388;SDS011;6764;53.250;10.410;2023-05-21T14:36:02;6.55;;;5.95;;
13388;SDS011;6764;53.250;10.410;2023-05-21T14:38:29;10.30;;;6.70;;
13388;SDS011;6764;53.250;10.410;2023-05-21T14:40:54;9.07;;;6.47;;
13388;SDS011;6764;53.250;10.410;2023-05-21T14:43:20;7.75;;;5.90;;
13388;SDS011;6764;53.250;10.410;2023-05-21T14:45:46;6.95;;;6.25;;
13388;SDS011;6764;53.250;10.410;2023-05-21T14:48:12;9.40;;;6.13;;
13388;SDS011;6764;53.250;10.410;2023-05-21T14:50:38;9.45;;;6.22;;
13388;SDS011;6764;53.250;10.410;2023-05-21T14:53:04;6.82;;;6.05;;
13388;SDS011;6764;53.250;10.410;2023-05-21T14:55:30;6.97;;;6.28;;
13388;SDS011;6764;53.250;10.410;2023-05-21T14:57:58;8.93;;;5.65;;
13388;SDS011;6764;53.250;10.410;2023-05-21T15:00:25;6.28;;;5.63;;
13388;SDS011;6764;53.250;10.410;2023-05-21T15:02:51;5.93;;;5.40;;
13388;SDS011;6764;53.250;10.410;2023-05-21T15:05:17;8.20;;;5.80;;
13388;SDS011;6764;53.250;10.410;2023-05-21T15:07:43;9.38;;;5.55;;
13388;SDS011;6764;53.250;10.410;2023-05-21T15:10:09;8.30;;;6.22;;
13388;SDS011;6764;53.250;10.410;2023-05-21T15:12:35;7.45;;;5.53;;